Winnipeg James Armstrong Richardson International Airport
CYWG : now visible

Airfield :











YOU CAN JOIN US ON...

 
LOGIN :

Register | Disclaimer

   EN    FR    IT 

 









Legend :    VFR   Marginal VFR   IFR   Intensive IFR   Very Intensive IFR
Visi :
Ceiling :
>= 8 km
>= 3000ft
5 to 8 km
1000 to 3000 ft
1500m to 5 km
500 to 1000 ft
800 to 1500m
200 to 500 ft
< 800m
< 200 ft
Symbols :   Thunderstorms  Fog  Heavy snow  Heavy precipitations  Wind > 20 kt






- Airport Elevation : 783 ft
- IATA code : YWG


CYWG - Winnipeg James Armstrong Richardson International

CURRENT METAR :
  • 230200Z 22007KT 15SM SKC 13/M09 A2964 RMK SLP043 DENSITY ALT 1100FT

EXPIRED METARs :
  • 230100Z 22012KT 15SM SKC 17/M10 A2962 RMK SLP038 DENSITY ALT 1600FT
  • 230000Z 22013G21KT 15SM SKC 19/M11 A2963 RMK SLP040 DENSITY ALT 1800FT

TAF TAF CYWG
Valid from the 23 at 00:00 until the 24 at 00:00 UTC


222338Z 2300/2324 24015G25KT P6SM SKC
BECMG 2304/2306 35018G28KT
FM230900 35018G28KT P6SM SCT020 BKN200
TEMPO 2309/2316 3SM -SN OVC020
FM231600 36018G28KT P6SM SCT020 BKN080
FM231900 36015G25KT P6SM SCT150 RMK NXT FCST BY 230600Z
CZWG FIR / North America



MET'MAP, your aeronautical weather chart ! - Copyright ORBIFLY December 2007 - Disclaimer

ORBIFLY MET'MAP TEAM :

Programming & Development : Alexandra Zaïnal
Concept & original design : Baudouin d'Aumeries
Assistance for programming : Marc-Olivier Méhu
Technical & hardware support : Manuel Goepfert

Contact : metmap@orbifly.com




SOURCES & CREDITS :

   NOAA       Earth
Advisory